sensor_id;sensor_type;location;lat;lon;timestamp;temperature;humidity
18948;DHT22;9607;51.600;7.558;2022-07-29T00:02:02;17.90;90.80
18948;DHT22;9607;51.600;7.558;2022-07-29T00:04:29;17.90;91.00
18948;DHT22;9607;51.600;7.558;2022-07-29T00:06:56;17.90;90.90
18948;DHT22;9607;51.600;7.558;2022-07-29T00:09:25;17.90;91.10
18948;DHT22;9607;51.600;7.558;2022-07-29T00:11:52;17.90;91.70
18948;DHT22;9607;51.600;7.558;2022-07-29T00:14:19;17.90;91.90
18948;DHT22;9607;51.600;7.558;2022-07-29T00:16:47;17.90;92.10
18948;DHT22;9607;51.600;7.558;2022-07-29T00:19:15;17.80;92.30
18948;DHT22;9607;51.600;7.558;2022-07-29T00:21:42;17.80;92.50
18948;DHT22;9607;51.600;7.558;2022-07-29T00:24:09;17.90;92.40
18948;DHT22;9607;51.600;7.558;2022-07-29T00:26:37;17.80;92.60
18948;DHT22;9607;51.600;7.558;2022-07-29T00:29:04;17.80;92.80
18948;DHT22;9607;51.600;7.558;2022-07-29T00:31:31;17.80;92.90
18948;DHT22;9607;51.600;7.558;2022-07-29T00:33:59;17.80;93.20
18948;DHT22;9607;51.600;7.558;2022-07-29T00:36:26;17.80;93.50
18948;DHT22;9607;51.600;7.558;2022-07-29T00:38:52;17.80;93.20
18948;DHT22;9607;51.600;7.558;2022-07-29T00:41:19;17.70;93.10
18948;DHT22;9607;51.600;7.558;2022-07-29T00:43:47;17.80;93.50
18948;DHT22;9607;51.600;7.558;2022-07-29T00:46:14;17.70;93.60
18948;DHT22;9607;51.600;7.558;2022-07-29T00:48:41;17.80;93.80
18948;DHT22;9607;51.600;7.558;2022-07-29T00:51:12;17.70;94.00
18948;DHT22;9607;51.600;7.558;2022-07-29T00:53:41;17.70;93.90
18948;DHT22;9607;51.600;7.558;2022-07-29T00:56:08;17.70;93.80
18948;DHT22;9607;51.600;7.558;2022-07-29T00:59:13;17.70;94.00
18948;DHT22;9607;51.600;7.558;2022-07-29T01:01:52;17.70;94.30
18948;DHT22;9607;51.600;7.558;2022-07-29T01:04:35;17.70;94.50
18948;DHT22;9607;51.600;7.558;2022-07-29T01:07:13;17.60;94.50
18948;DHT22;9607;51.600;7.558;2022-07-29T01:13:02;17.50;94.60
18948;DHT22;9607;51.600;7.558;2022-07-29T01:15:33;17.40;95.50
18948;DHT22;9607;51.600;7.558;2022-07-29T01:18:09;17.40;95.80
18948;DHT22;9607;51.600;7.558;2022-07-29T01:20:55;17.40;95.90
18948;DHT22;9607;51.600;7.558;2022-07-29T01:23:48;17.30;95.90
18948;DHT22;9607;51.600;7.558;2022-07-29T01:26:33;17.30;96.00
18948;DHT22;9607;51.600;7.558;2022-07-29T01:29:10;17.30;96.40
18948;DHT22;9607;51.600;7.558;2022-07-29T01:31:43;17.20;96.80
18948;DHT22;9607;51.600;7.558;2022-07-29T01:34:18;17.20;97.30
18948;DHT22;9607;51.600;7.558;2022-07-29T01:36:50;17.20;97.20
18948;DHT22;9607;51.600;7.558;2022-07-29T01:39:21;17.20;97.80
18948;DHT22;9607;51.600;7.558;2022-07-29T01:41:54;17.10;98.20
18948;DHT22;9607;51.600;7.558;2022-07-29T01:44:31;17.10;98.20
18948;DHT22;9607;51.600;7.558;2022-07-29T01:47:03;17.10;98.30
18948;DHT22;9607;51.600;7.558;2022-07-29T01:49:35;17.10;98.40
18948;DHT22;9607;51.600;7.558;2022-07-29T01:52:07;17.00;98.50
18948;DHT22;9607;51.600;7.558;2022-07-29T01:54:38;17.00;98.50
18948;DHT22;9607;51.600;7.558;2022-07-29T01:57:11;17.00;98.90
18948;DHT22;9607;51.600;7.558;2022-07-29T01:59:41;17.00;98.70
18948;DHT22;9607;51.600;7.558;2022-07-29T02:02:11;17.00;99.30
18948;DHT22;9607;51.600;7.558;2022-07-29T02:04:40;17.00;99.50
18948;DHT22;9607;51.600;7.558;2022-07-29T02:07:12;17.00;99.90
18948;DHT22;9607;51.600;7.558;2022-07-29T02:09:41;17.00;99.90
18948;DHT22;9607;51.600;7.558;2022-07-29T02:12:10;17.00;99.90
18948;DHT22;9607;51.600;7.558;2022-07-29T02:14:41;17.00;99.90
18948;DHT22;9607;51.600;7.558;2022-07-29T02:17:11;16.90;99.90
18948;DHT22;9607;51.600;7.558;2022-07-29T02:19:39;16.90;99.90
18948;DHT22;9607;51.600;7.558;2022-07-29T02:22:08;16.90;99.90
18948;DHT22;9607;51.600;7.558;2022-07-29T02:24:37;16.80;99.90
18948;DHT22;9607;51.600;7.558;2022-07-29T02:27:07;16.80;99.90
18948;DHT22;9607;51.600;7.558;2022-07-29T02:29:34;16.70;99.90
18948;DHT22;9607;51.600;7.558;2022-07-29T02:32:04;16.60;99.90
18948;DHT22;9607;51.600;7.558;2022-07-29T02:34:33;16.60;99.90
18948;DHT22;9607;51.600;7.558;2022-07-29T02:37:01;16.50;99.90
18948;DHT22;9607;51.600;7.558;2022-07-29T02:39:30;16.50;99.90
18948;DHT22;9607;51.600;7.558;2022-07-29T02:42:01;16.40;99.90
18948;DHT22;9607;51.600;7.558;2022-07-29T02:44:29;16.30;99.90
18948;DHT22;9607;51.600;7.558;2022-07-29T02:47:03;16.30;99.90
18948;DHT22;9607;51.600;7.558;2022-07-29T02:49:37;16.30;99.90
18948;DHT22;9607;51.600;7.558;2022-07-29T02:52:09;16.20;99.90
18948;DHT22;9607;51.600;7.558;2022-07-29T02:54:41;16.10;99.90
18948;DHT22;9607;51.600;7.558;2022-07-29T02:57:13;16.10;99.90
18948;DHT22;9607;51.600;7.558;2022-07-29T02:59:42;16.10;99.90
18948;DHT22;9607;51.600;7.558;2022-07-29T03:02:14;16.10;99.90
18948;DHT22;9607;51.600;7.558;2022-07-29T03:04:42;16.10;99.90
18948;DHT22;9607;51.600;7.558;2022-07-29T03:07:11;16.20;99.90
18948;DHT22;9607;51.600;7.558;2022-07-29T03:09:40;16.10;99.90
18948;DHT22;9607;51.600;7.558;2022-07-29T03:12:08;16.20;99.90
18948;DHT22;9607;51.600;7.558;2022-07-29T03:14:37;16.10;99.90
18948;DHT22;9607;51.600;7.558;2022-07-29T03:17:05;16.10;99.90
18948;DHT22;9607;51.600;7.558;2022-07-29T03:19:34;16.10;99.90
18948;DHT22;9607;51.600;7.558;2022-07-29T03:22:01;16.10;99.90
18948;DHT22;9607;51.600;7.558;2022-07-29T03:24:30;16.00;99.90
18948;DHT22;9607;51.600;7.558;2022-07-29T03:26:58;15.90;99.90
18948;DHT22;9607;51.600;7.558;2022-07-29T03:29:25;15.90;99.90
18948;DHT22;9607;51.600;7.558;2022-07-29T03:31:53;15.90;99.90
18948;DHT22;9607;51.600;7.558;2022-07-29T03:34:20;15.80;99.90
18948;DHT22;9607;51.600;7.558;2022-07-29T03:36:49;15.80;99.90
18948;DHT22;9607;51.600;7.558;2022-07-29T03:39:18;15.70;99.90
18948;DHT22;9607;51.600;7.558;2022-07-29T03:41:49;15.80;99.90
18948;DHT22;9607;51.600;7.558;2022-07-29T03:44:17;15.80;99.90
18948;DHT22;9607;51.600;7.558;2022-07-29T03:46:45;15.80;99.90
18948;DHT22;9607;51.600;7.558;2022-07-29T03:49:15;15.80;99.90
18948;DHT22;9607;51.600;7.558;2022-07-29T03:51:43;15.80;99.90
18948;DHT22;9607;51.600;7.558;2022-07-29T03:54:11;15.90;99.90
18948;DHT22;9607;51.600;7.558;2022-07-29T03:56:41;15.90;99.90
18948;DHT22;9607;51.600;7.558;2022-07-29T03:59:13;15.90;99.90
18948;DHT22;9607;51.600;7.558;2022-07-29T04:01:41;15.90;99.90
18948;DHT22;9607;51.600;7.558;2022-07-29T04:04:09;15.80;99.90
18948;DHT22;9607;51.600;7.558;2022-07-29T04:06:39;15.90;99.90
18948;DHT22;9607;51.600;7.558;2022-07-29T04:09:07;15.80;99.90
18948;DHT22;9607;51.600;7.558;2022-07-29T04:11:36;15.80;99.90
18948;DHT22;9607;51.600;7.558;2022-07-29T04:14:03;15.70;99.90
18948;DHT22;9607;51.600;7.558;2022-07-29T04:16:30;15.70;99.90
18948;DHT22;9607;51.600;7.558;2022-07-29T04:18:57;15.70;99.90
18948;DHT22;9607;51.600;7.558;2022-07-29T04:21:23;15.70;99.90
18948;DHT22;9607;51.600;7.558;2022-07-29T04:23:50;15.70;99.90
18948;DHT22;9607;51.600;7.558;2022-07-29T04:26:18;15.80;99.90
18948;DHT22;9607;51.600;7.558;2022-07-29T04:28:47;15.90;99.90
18948;DHT22;9607;51.600;7.558;2022-07-29T04:31:14;15.90;99.90
18948;DHT22;9607;51.600;7.558;2022-07-29T04:33:40;16.00;99.90
18948;DHT22;9607;51.600;7.558;2022-07-29T04:36:07;16.00;99.90
18948;DHT22;9607;51.600;7.558;2022-07-29T04:38:36;16.10;99.90
18948;DHT22;9607;51.600;7.558;2022-07-29T04:41:03;16.20;99.90
18948;DHT22;9607;51.600;7.558;2022-07-29T04:43:30;16.30;99.90
18948;DHT22;9607;51.600;7.558;2022-07-29T04:45:58;16.30;99.90
18948;DHT22;9607;51.600;7.558;2022-07-29T04:48:25;16.40;99.90
18948;DHT22;9607;51.600;7.558;2022-07-29T04:50:52;16.40;99.90
18948;DHT22;9607;51.600;7.558;2022-07-29T04:53:19;16.40;99.90
18948;DHT22;9607;51.600;7.558;2022-07-29T04:55:46;16.50;99.90
18948;DHT22;9607;51.600;7.558;2022-07-29T04:58:13;16.50;99.90
18948;DHT22;9607;51.600;7.558;2022-07-29T05:00:40;16.50;99.90
18948;DHT22;9607;51.600;7.558;2022-07-29T05:03:08;16.50;99.90
18948;DHT22;9607;51.600;7.558;2022-07-29T05:05:35;16.50;99.90
18948;DHT22;9607;51.600;7.558;2022-07-29T05:08:02;16.50;99.90
18948;DHT22;9607;51.600;7.558;2022-07-29T05:10:29;16.50;99.90
18948;DHT22;9607;51.600;7.558;2022-07-29T05:12:56;16.50;99.90
18948;DHT22;9607;51.600;7.558;2022-07-29T05:15:23;16.50;99.90
18948;DHT22;9607;51.600;7.558;2022-07-29T05:17:50;16.50;99.90
18948;DHT22;9607;51.600;7.558;2022-07-29T05:20:18;16.50;99.90
18948;DHT22;9607;51.600;7.558;2022-07-29T05:22:51;16.50;99.90
18948;DHT22;9607;51.600;7.558;2022-07-29T05:25:18;16.50;99.90
18948;DHT22;9607;51.600;7.558;2022-07-29T05:27:45;16.40;99.90
18948;DHT22;9607;51.600;7.558;2022-07-29T05:30:12;16.50;99.90
18948;DHT22;9607;51.600;7.558;2022-07-29T05:32:39;16.40;99.90
18948;DHT22;9607;51.600;7.558;2022-07-29T05:35:07;16.40;99.90
18948;DHT22;9607;51.600;7.558;2022-07-29T05:37:35;16.50;99.90
18948;DHT22;9607;51.600;7.558;2022-07-29T05:40:02;16.50;99.90
18948;DHT22;9607;51.600;7.558;2022-07-29T05:42:31;16.50;99.90
18948;DHT22;9607;51.600;7.558;2022-07-29T05:44:58;16.50;99.90
18948;DHT22;9607;51.600;7.558;2022-07-29T05:47:25;16.60;99.90
18948;DHT22;9607;51.600;7.558;2022-07-29T05:49:53;16.60;99.90
18948;DHT22;9607;51.600;7.558;2022-07-29T05:52:20;16.70;99.90
18948;DHT22;9607;51.600;7.558;2022-07-29T05:54:49;16.70;99.90
18948;DHT22;9607;51.600;7.558;2022-07-29T05:57:17;16.80;99.90
18948;DHT22;9607;51.600;7.558;2022-07-29T05:59:44;16.90;99.90
18948;DHT22;9607;51.600;7.558;2022-07-29T06:02:11;17.00;99.90
18948;DHT22;9607;51.600;7.558;2022-07-29T06:04:38;17.10;99.90
18948;DHT22;9607;51.600;7.558;2022-07-29T06:07:05;17.30;99.90
18948;DHT22;9607;51.600;7.558;2022-07-29T06:09:32;17.40;99.90
18948;DHT22;9607;51.600;7.558;2022-07-29T06:12:01;17.50;99.90
18948;DHT22;9607;51.600;7.558;2022-07-29T06:14:28;17.60;99.90
18948;DHT22;9607;51.600;7.558;2022-07-29T06:16:56;17.80;99.90
18948;DHT22;9607;51.600;7.558;2022-07-29T06:19:23;17.90;99.90
18948;DHT22;9607;51.600;7.558;2022-07-29T06:21:50;18.00;99.90
18948;DHT22;9607;51.600;7.558;2022-07-29T06:24:17;18.20;99.90
18948;DHT22;9607;51.600;7.558;2022-07-29T06:26:44;18.30;99.90
18948;DHT22;9607;51.600;7.558;2022-07-29T06:29:12;18.50;99.90
18948;DHT22;9607;51.600;7.558;2022-07-29T06:31:39;18.60;99.90
18948;DHT22;9607;51.600;7.558;2022-07-29T06:34:06;18.70;99.80
18948;DHT22;9607;51.600;7.558;2022-07-29T06:36:34;18.80;99.60
18948;DHT22;9607;51.600;7.558;2022-07-29T06:39:04;18.90;99.50
18948;DHT22;9607;51.600;7.558;2022-07-29T06:41:30;19.00;99.50
18948;DHT22;9607;51.600;7.558;2022-07-29T06:43:57;19.10;99.10
18948;DHT22;9607;51.600;7.558;2022-07-29T06:46:26;19.30;98.60
18948;DHT22;9607;51.600;7.558;2022-07-29T06:48:53;19.50;97.70
18948;DHT22;9607;51.600;7.558;2022-07-29T06:51:20;19.60;97.40
18948;DHT22;9607;51.600;7.558;2022-07-29T06:53:47;19.90;97.30
18948;DHT22;9607;51.600;7.558;2022-07-29T06:56:14;20.10;96.90
18948;DHT22;9607;51.600;7.558;2022-07-29T06:58:41;20.30;95.70
18948;DHT22;9607;51.600;7.558;2022-07-29T07:01:08;20.50;95.00
18948;DHT22;9607;51.600;7.558;2022-07-29T07:03:36;20.70;94.30
18948;DHT22;9607;51.600;7.558;2022-07-29T07:06:03;20.80;93.50
18948;DHT22;9607;51.600;7.558;2022-07-29T07:08:30;20.90;92.60
18948;DHT22;9607;51.600;7.558;2022-07-29T07:10:57;21.00;92.90
18948;DHT22;9607;51.600;7.558;2022-07-29T07:13:24;21.10;92.80
18948;DHT22;9607;51.600;7.558;2022-07-29T07:15:51;21.20;92.30
18948;DHT22;9607;51.600;7.558;2022-07-29T07:18:18;21.30;91.50
18948;DHT22;9607;51.600;7.558;2022-07-29T07:20:46;21.40;91.10
18948;DHT22;9607;51.600;7.558;2022-07-29T07:23:14;21.50;91.00
18948;DHT22;9607;51.600;7.558;2022-07-29T07:25:41;21.70;90.40
18948;DHT22;9607;51.600;7.558;2022-07-29T07:28:08;21.90;90.00
18948;DHT22;9607;51.600;7.558;2022-07-29T07:30:35;21.90;88.60
18948;DHT22;9607;51.600;7.558;2022-07-29T07:33:03;22.10;87.70
18948;DHT22;9607;51.600;7.558;2022-07-29T07:35:30;22.20;86.80
18948;DHT22;9607;51.600;7.558;2022-07-29T07:37:59;22.30;85.70
18948;DHT22;9607;51.600;7.558;2022-07-29T07:40:26;22.40;84.80
18948;DHT22;9607;51.600;7.558;2022-07-29T07:42:53;22.50;84.10
18948;DHT22;9607;51.600;7.558;2022-07-29T07:45:20;22.50;83.40
18948;DHT22;9607;51.600;7.558;2022-07-29T07:47:46;22.60;83.40
18948;DHT22;9607;51.600;7.558;2022-07-29T07:50:13;22.70;82.40
18948;DHT22;9607;51.600;7.558;2022-07-29T07:52:47;22.80;82.30
18948;DHT22;9607;51.600;7.558;2022-07-29T07:55:16;22.90;81.40
18948;DHT22;9607;51.600;7.558;2022-07-29T07:57:43;23.10;81.10
18948;DHT22;9607;51.600;7.558;2022-07-29T08:00:12;23.30;79.50
18948;DHT22;9607;51.600;7.558;2022-07-29T08:02:39;23.40;77.60
18948;DHT22;9607;51.600;7.558;2022-07-29T08:05:08;23.50;75.10
18948;DHT22;9607;51.600;7.558;2022-07-29T08:07:36;23.50;75.70
18948;DHT22;9607;51.600;7.558;2022-07-29T08:10:04;23.60;76.70
18948;DHT22;9607;51.600;7.558;2022-07-29T08:12:32;23.70;75.60
18948;DHT22;9607;51.600;7.558;2022-07-29T08:14:59;23.90;74.60
18948;DHT22;9607;51.600;7.558;2022-07-29T08:17:26;24.10;73.80
18948;DHT22;9607;51.600;7.558;2022-07-29T08:19:53;24.30;72.90
18948;DHT22;9607;51.600;7.558;2022-07-29T08:22:20;24.60;70.90
18948;DHT22;9607;51.600;7.558;2022-07-29T08:24:47;24.70;67.40
18948;DHT22;9607;51.600;7.558;2022-07-29T08:27:19;24.70;65.40
18948;DHT22;9607;51.600;7.558;2022-07-29T08:29:48;24.70;64.80
18948;DHT22;9607;51.600;7.558;2022-07-29T08:32:15;24.70;65.50
18948;DHT22;9607;51.600;7.558;2022-07-29T08:34:42;24.80;65.50
18948;DHT22;9607;51.600;7.558;2022-07-29T08:37:11;24.90;64.60
18948;DHT22;9607;51.600;7.558;2022-07-29T08:39:39;25.00;63.90
18948;DHT22;9607;51.600;7.558;2022-07-29T08:42:06;25.00;63.40
18948;DHT22;9607;51.600;7.558;2022-07-29T08:44:35;25.00;63.40
18948;DHT22;9607;51.600;7.558;2022-07-29T08:47:04;24.90;64.10
18948;DHT22;9607;51.600;7.558;2022-07-29T08:49:33;24.80;62.70
18948;DHT22;9607;51.600;7.558;2022-07-29T08:52:00;24.80;62.20
18948;DHT22;9607;51.600;7.558;2022-07-29T08:54:28;24.70;61.70
18948;DHT22;9607;51.600;7.558;2022-07-29T08:56:56;24.70;62.60
18948;DHT22;9607;51.600;7.558;2022-07-29T08:59:25;24.70;63.50
18948;DHT22;9607;51.600;7.558;2022-07-29T09:01:53;24.90;63.30
18948;DHT22;9607;51.600;7.558;2022-07-29T09:04:24;25.00;63.40
18948;DHT22;9607;51.600;7.558;2022-07-29T09:06:52;25.10;62.20
18948;DHT22;9607;51.600;7.558;2022-07-29T09:09:21;25.10;61.70
18948;DHT22;9607;51.600;7.558;2022-07-29T09:11:48;25.10;61.50
18948;DHT22;9607;51.600;7.558;2022-07-29T09:14:15;25.10;62.40
18948;DHT22;9607;51.600;7.558;2022-07-29T09:16:52;25.10;61.00
18948;DHT22;9607;51.600;7.558;2022-07-29T09:19:22;25.00;61.90
18948;DHT22;9607;51.600;7.558;2022-07-29T09:21:49;25.10;62.40
18948;DHT22;9607;51.600;7.558;2022-07-29T09:24:40;25.10;63.60
18948;DHT22;9607;51.600;7.558;2022-07-29T09:27:19;25.10;60.50
18948;DHT22;9607;51.600;7.558;2022-07-29T09:29:48;25.00;61.40
18948;DHT22;9607;51.600;7.558;2022-07-29T09:32:21;25.10;62.00
18948;DHT22;9607;51.600;7.558;2022-07-29T09:34:50;25.00;61.20
18948;DHT22;9607;51.600;7.558;2022-07-29T09:37:26;24.90;62.70
18948;DHT22;9607;51.600;7.558;2022-07-29T09:39:53;24.90;62.90
18948;DHT22;9607;51.600;7.558;2022-07-29T09:42:27;24.80;63.00
18948;DHT22;9607;51.600;7.558;2022-07-29T09:44:55;24.80;63.80
18948;DHT22;9607;51.600;7.558;2022-07-29T09:47:21;24.90;64.00
18948;DHT22;9607;51.600;7.558;2022-07-29T09:49:54;24.90;64.00
18948;DHT22;9607;51.600;7.558;2022-07-29T09:52:24;24.90;65.80
18948;DHT22;9607;51.600;7.558;2022-07-29T09:54:50;24.90;64.20
18948;DHT22;9607;51.600;7.558;2022-07-29T09:57:25;24.70;64.10
18948;DHT22;9607;51.600;7.558;2022-07-29T09:59:57;24.60;63.70
18948;DHT22;9607;51.600;7.558;2022-07-29T10:02:28;24.50;64.30
18948;DHT22;9607;51.600;7.558;2022-07-29T10:04:57;24.40;65.50
18948;DHT22;9607;51.600;7.558;2022-07-29T10:07:25;24.20;66.70
18948;DHT22;9607;51.600;7.558;2022-07-29T10:09:53;23.90;68.70
18948;DHT22;9607;51.600;7.558;2022-07-29T10:12:22;23.80;72.10
18948;DHT22;9607;51.600;7.558;2022-07-29T10:14:50;23.60;74.30
18948;DHT22;9607;51.600;7.558;2022-07-29T10:17:18;23.60;76.40
18948;DHT22;9607;51.600;7.558;2022-07-29T10:19:45;23.50;77.50
18948;DHT22;9607;51.600;7.558;2022-07-29T10:22:13;23.40;79.10
18948;DHT22;9607;51.600;7.558;2022-07-29T10:24:40;23.40;79.90
18948;DHT22;9607;51.600;7.558;2022-07-29T10:27:08;23.30;81.30
18948;DHT22;9607;51.600;7.558;2022-07-29T10:29:35;23.20;82.90
18948;DHT22;9607;51.600;7.558;2022-07-29T10:32:24;22.90;83.20
18948;DHT22;9607;51.600;7.558;2022-07-29T10:35:21;22.50;84.80
18948;DHT22;9607;51.600;7.558;2022-07-29T10:38:07;22.20;90.40
18948;DHT22;9607;51.600;7.558;2022-07-29T10:40:43;21.90;92.20
18948;DHT22;9607;51.600;7.558;2022-07-29T10:43:32;21.60;93.90
18948;DHT22;9607;51.600;7.558;2022-07-29T10:46:02;21.40;95.10
18948;DHT22;9607;51.600;7.558;2022-07-29T10:48:29;21.20;96.00
18948;DHT22;9607;51.600;7.558;2022-07-29T10:50:58;21.10;96.60
18948;DHT22;9607;51.600;7.558;2022-07-29T10:53:47;21.00;96.90
18948;DHT22;9607;51.600;7.558;2022-07-29T10:56:24;20.90;97.90
18948;DHT22;9607;51.600;7.558;2022-07-29T10:59:22;20.80;98.60
18948;DHT22;9607;51.600;7.558;2022-07-29T11:01:50;20.80;98.70
18948;DHT22;9607;51.600;7.558;2022-07-29T11:07:22;20.60;98.20
18948;DHT22;9607;51.600;7.558;2022-07-29T11:10:21;20.60;98.00
18948;DHT22;9607;51.600;7.558;2022-07-29T11:12:49;20.60;97.80
18948;DHT22;9607;51.600;7.558;2022-07-29T11:15:18;20.50;97.80
18948;DHT22;9607;51.600;7.558;2022-07-29T11:18:05;20.40;98.80
18948;DHT22;9607;51.600;7.558;2022-07-29T11:20:40;20.30;99.20
18948;DHT22;9607;51.600;7.558;2022-07-29T11:23:21;20.20;99.90
18948;DHT22;9607;51.600;7.558;2022-07-29T11:26:19;20.10;99.90
18948;DHT22;9607;51.600;7.558;2022-07-29T11:28:53;20.00;99.90
18948;DHT22;9607;51.600;7.558;2022-07-29T11:31:33;20.00;99.90
18948;DHT22;9607;51.600;7.558;2022-07-29T11:34:16;20.00;99.90
18948;DHT22;9607;51.600;7.558;2022-07-29T11:40:16;20.00;99.90
18948;DHT22;9607;51.600;7.558;2022-07-29T11:42:49;20.00;99.90
18948;DHT22;9607;51.600;7.558;2022-07-29T11:45:19;20.00;99.90
18948;DHT22;9607;51.600;7.558;2022-07-29T11:47:51;20.00;99.90
18948;DHT22;9607;51.600;7.558;2022-07-29T11:50:31;20.00;99.90
18948;DHT22;9607;51.600;7.558;2022-07-29T11:52:59;20.00;99.90
18948;DHT22;9607;51.600;7.558;2022-07-29T11:55:26;20.00;99.90
18948;DHT22;9607;51.600;7.558;2022-07-29T11:57:56;20.00;99.90
18948;DHT22;9607;51.600;7.558;2022-07-29T12:00:30;20.00;99.90
18948;DHT22;9607;51.600;7.558;2022-07-29T12:02:59;20.00;99.90
18948;DHT22;9607;51.600;7.558;2022-07-29T12:05:35;20.00;99.90
18948;DHT22;9607;51.600;7.558;2022-07-29T12:08:07;20.20;99.90
18948;DHT22;9607;51.600;7.558;2022-07-29T12:10:34;20.20;99.90
18948;DHT22;9607;51.600;7.558;2022-07-29T12:13:03;20.30;99.90
18948;DHT22;9607;51.600;7.558;2022-07-29T12:15:31;20.30;99.90
18948;DHT22;9607;51.600;7.558;2022-07-29T12:17:58;20.30;99.90
18948;DHT22;9607;51.600;7.558;2022-07-29T12:20:27;20.30;99.90
18948;DHT22;9607;51.600;7.558;2022-07-29T12:22:54;20.40;99.90
18948;DHT22;9607;51.600;7.558;2022-07-29T12:25:23;20.40;99.90
18948;DHT22;9607;51.600;7.558;2022-07-29T12:28:00;20.50;99.90
18948;DHT22;9607;51.600;7.558;2022-07-29T12:30:45;20.60;99.90
18948;DHT22;9607;51.600;7.558;2022-07-29T12:33:19;20.60;99.90
18948;DHT22;9607;51.600;7.558;2022-07-29T12:35:50;20.60;99.90
18948;DHT22;9607;51.600;7.558;2022-07-29T12:38:17;20.50;99.90
18948;DHT22;9607;51.600;7.558;2022-07-29T12:40:46;20.40;99.90
18948;DHT22;9607;51.600;7.558;2022-07-29T12:43:14;20.30;99.90
18948;DHT22;9607;51.600;7.558;2022-07-29T12:45:44;20.30;99.90
18948;DHT22;9607;51.600;7.558;2022-07-29T12:48:12;20.30;99.90
18948;DHT22;9607;51.600;7.558;2022-07-29T12:51:01;20.40;99.90
18948;DHT22;9607;51.600;7.558;2022-07-29T12:53:28;20.40;99.90
18948;DHT22;9607;51.600;7.558;2022-07-29T12:55:56;20.50;99.90
18948;DHT22;9607;51.600;7.558;2022-07-29T12:58:31;20.60;99.90
18948;DHT22;9607;51.600;7.558;2022-07-29T13:01:02;20.60;99.90
18948;DHT22;9607;51.600;7.558;2022-07-29T13:03:42;20.60;99.90
18948;DHT22;9607;51.600;7.558;2022-07-29T13:06:27;20.40;99.90
18948;DHT22;9607;51.600;7.558;2022-07-29T13:09:01;20.20;99.90
18948;DHT22;9607;51.600;7.558;2022-07-29T13:11:30;20.00;99.90
18948;DHT22;9607;51.600;7.558;2022-07-29T13:13:56;19.80;99.90
18948;DHT22;9607;51.600;7.558;2022-07-29T13:16:25;19.80;99.90
18948;DHT22;9607;51.600;7.558;2022-07-29T13:19:09;19.90;99.90
18948;DHT22;9607;51.600;7.558;2022-07-29T13:21:37;20.20;99.90
18948;DHT22;9607;51.600;7.558;2022-07-29T13:24:05;20.50;99.90
18948;DHT22;9607;51.600;7.558;2022-07-29T13:26:33;20.70;99.90
18948;DHT22;9607;51.600;7.558;2022-07-29T13:29:00;20.80;99.90
18948;DHT22;9607;51.600;7.558;2022-07-29T13:31:28;20.80;99.90
18948;DHT22;9607;51.600;7.558;2022-07-29T13:33:55;20.70;99.90
18948;DHT22;9607;51.600;7.558;2022-07-29T13:36:22;20.80;99.90
18948;DHT22;9607;51.600;7.558;2022-07-29T13:38:49;20.90;99.90
18948;DHT22;9607;51.600;7.558;2022-07-29T13:41:16;21.10;99.90
18948;DHT22;9607;51.600;7.558;2022-07-29T13:43:43;21.20;99.90
18948;DHT22;9607;51.600;7.558;2022-07-29T13:46:11;21.50;99.90
18948;DHT22;9607;51.600;7.558;2022-07-29T13:48:39;21.70;99.90
18948;DHT22;9607;51.600;7.558;2022-07-29T13:51:06;21.90;99.90
18948;DHT22;9607;51.600;7.558;2022-07-29T13:53:33;22.20;99.90
18948;DHT22;9607;51.600;7.558;2022-07-29T13:56:00;22.40;99.90
18948;DHT22;9607;51.600;7.558;2022-07-29T13:58:27;22.70;99.90
18948;DHT22;9607;51.600;7.558;2022-07-29T14:00:55;22.90;99.90
18948;DHT22;9607;51.600;7.558;2022-07-29T14:03:22;23.30;99.10
18948;DHT22;9607;51.600;7.558;2022-07-29T14:05:51;23.60;99.40
18948;DHT22;9607;51.600;7.558;2022-07-29T14:08:18;24.10;98.10
18948;DHT22;9607;51.600;7.558;2022-07-29T14:10:45;24.60;97.00
18948;DHT22;9607;51.600;7.558;2022-07-29T14:13:11;24.90;93.60
18948;DHT22;9607;51.600;7.558;2022-07-29T14:15:38;24.90;91.60
18948;DHT22;9607;51.600;7.558;2022-07-29T14:18:05;24.80;91.60
18948;DHT22;9607;51.600;7.558;2022-07-29T14:20:32;24.80;90.80
18948;DHT22;9607;51.600;7.558;2022-07-29T14:23:00;24.90;91.60
18948;DHT22;9607;51.600;7.558;2022-07-29T14:25:28;25.20;90.80
18948;DHT22;9607;51.600;7.558;2022-07-29T14:27:55;25.40;90.10
18948;DHT22;9607;51.600;7.558;2022-07-29T14:30:21;25.70;88.20
18948;DHT22;9607;51.600;7.558;2022-07-29T14:32:48;25.90;83.40
18948;DHT22;9607;51.600;7.558;2022-07-29T14:35:15;25.90;81.50
18948;DHT22;9607;51.600;7.558;2022-07-29T14:37:42;25.90;79.50
18948;DHT22;9607;51.600;7.558;2022-07-29T14:40:11;26.00;79.80
18948;DHT22;9607;51.600;7.558;2022-07-29T14:42:38;26.00;80.00
18948;DHT22;9607;51.600;7.558;2022-07-29T14:45:07;26.20;80.10
18948;DHT22;9607;51.600;7.558;2022-07-29T14:47:34;26.30;76.30
18948;DHT22;9607;51.600;7.558;2022-07-29T14:50:01;26.60;77.10
18948;DHT22;9607;51.600;7.558;2022-07-29T14:52:28;27.00;73.40
18948;DHT22;9607;51.600;7.558;2022-07-29T14:54:56;27.20;72.00
18948;DHT22;9607;51.600;7.558;2022-07-29T14:57:24;27.40;71.90
18948;DHT22;9607;51.600;7.558;2022-07-29T14:59:51;27.80;69.90
18948;DHT22;9607;51.600;7.558;2022-07-29T15:02:17;28.20;68.30
18948;DHT22;9607;51.600;7.558;2022-07-29T15:04:44;28.60;65.80
18948;DHT22;9607;51.600;7.558;2022-07-29T15:07:13;29.10;64.10
18948;DHT22;9607;51.600;7.558;2022-07-29T15:09:40;29.60;62.40
18948;DHT22;9607;51.600;7.558;2022-07-29T15:12:08;30.10;59.50
18948;DHT22;9607;51.600;7.558;2022-07-29T15:14:37;30.50;58.80
18948;DHT22;9607;51.600;7.558;2022-07-29T15:17:04;30.90;57.90
18948;DHT22;9607;51.600;7.558;2022-07-29T15:19:31;31.20;54.80
18948;DHT22;9607;51.600;7.558;2022-07-29T15:21:58;31.60;54.90
18948;DHT22;9607;51.600;7.558;2022-07-29T15:24:25;32.10;53.80
18948;DHT22;9607;51.600;7.558;2022-07-29T15:26:52;32.90;51.20
18948;DHT22;9607;51.600;7.558;2022-07-29T15:29:19;33.80;48.00
18948;DHT22;9607;51.600;7.558;2022-07-29T15:31:48;34.60;45.60
18948;DHT22;9607;51.600;7.558;2022-07-29T15:34:15;35.20;44.20
18948;DHT22;9607;51.600;7.558;2022-07-29T15:36:42;35.70;42.60
18948;DHT22;9607;51.600;7.558;2022-07-29T15:39:09;35.40;42.30
18948;DHT22;9607;51.600;7.558;2022-07-29T15:41:36;35.50;42.50
18948;DHT22;9607;51.600;7.558;2022-07-29T15:44:03;35.60;42.30
18948;DHT22;9607;51.600;7.558;2022-07-29T15:46:30;36.00;41.80
18948;DHT22;9607;51.600;7.558;2022-07-29T15:49:15;36.40;41.50
18948;DHT22;9607;51.600;7.558;2022-07-29T15:51:42;36.90;40.40
18948;DHT22;9607;51.600;7.558;2022-07-29T15:54:09;37.10;39.80
18948;DHT22;9607;51.600;7.558;2022-07-29T15:56:37;37.30;40.00
18948;DHT22;9607;51.600;7.558;2022-07-29T15:59:04;37.50;38.90
18948;DHT22;9607;51.600;7.558;2022-07-29T16:01:31;38.00;38.60
18948;DHT22;9607;51.600;7.558;2022-07-29T16:03:58;38.80;37.50
18948;DHT22;9607;51.600;7.558;2022-07-29T16:06:26;38.90;36.10
18948;DHT22;9607;51.600;7.558;2022-07-29T16:08:53;38.90;36.40
18948;DHT22;9607;51.600;7.558;2022-07-29T16:11:21;39.00;37.30